sensor_id;sensor_type;location;lat;lon;timestamp;P1;durP1;ratioP1;P2;durP2;ratioP2
14292;SDS011;62290;59.420;17.842;2022-08-06T00:02:19;2.35;;;0.50;;
14292;SDS011;62290;59.420;17.842;2022-08-06T00:04:53;3.25;;;0.80;;
14292;SDS011;62290;59.420;17.842;2022-08-06T00:07:23;1.40;;;0.50;;
14292;SDS011;62290;59.420;17.842;2022-08-06T00:09:54;3.42;;;0.75;;
14292;SDS011;62290;59.420;17.842;2022-08-06T00:12:28;3.05;;;0.60;;
14292;SDS011;62290;59.420;17.842;2022-08-06T00:15:01;1.38;;;0.60;;
14292;SDS011;62290;59.420;17.842;2022-08-06T00:17:41;2.58;;;0.68;;
14292;SDS011;62290;59.420;17.842;2022-08-06T00:20:09;0.57;;;0.50;;
14292;SDS011;62290;59.420;17.842;2022-08-06T00:22:57;2.58;;;0.60;;
14292;SDS011;62290;59.420;17.842;2022-08-06T00:25:25;1.30;;;0.55;;
14292;SDS011;62290;59.420;17.842;2022-08-06T00:27:53;1.08;;;0.55;;
14292;SDS011;62290;59.420;17.842;2022-08-06T00:30:22;1.15;;;0.40;;
14292;SDS011;62290;59.420;17.842;2022-08-06T00:32:51;1.20;;;0.50;;
14292;SDS011;62290;59.420;17.842;2022-08-06T00:35:22;2.95;;;0.70;;
14292;SDS011;62290;59.420;17.842;2022-08-06T00:37:54;1.20;;;0.60;;
14292;SDS011;62290;59.420;17.842;2022-08-06T00:40:25;1.25;;;0.65;;
14292;SDS011;62290;59.420;17.842;2022-08-06T00:42:55;0.52;;;0.50;;
14292;SDS011;62290;59.420;17.842;2022-08-06T00:45:32;2.85;;;0.60;;
14292;SDS011;62290;59.420;17.842;2022-08-06T00:48:12;1.70;;;0.68;;
14292;SDS011;62290;59.420;17.842;2022-08-06T00:50:56;1.02;;;0.40;;
14292;SDS011;62290;59.420;17.842;2022-08-06T00:53:26;4.63;;;0.70;;
14292;SDS011;62290;59.420;17.842;2022-08-06T00:55:59;2.55;;;0.68;;
14292;SDS011;62290;59.420;17.842;2022-08-06T00:58:34;1.98;;;0.50;;
14292;SDS011;62290;59.420;17.842;2022-08-06T01:01:06;2.40;;;0.68;;
14292;SDS011;62290;59.420;17.842;2022-08-06T01:03:44;1.00;;;0.50;;
14292;SDS011;62290;59.420;17.842;2022-08-06T01:06:17;1.05;;;0.50;;
14292;SDS011;62290;59.420;17.842;2022-08-06T01:09:05;3.45;;;0.60;;
14292;SDS011;62290;59.420;17.842;2022-08-06T01:11:35;1.25;;;0.52;;
14292;SDS011;62290;59.420;17.842;2022-08-06T01:14:04;4.20;;;1.05;;
14292;SDS011;62290;59.420;17.842;2022-08-06T01:16:38;1.20;;;0.50;;
14292;SDS011;62290;59.420;17.842;2022-08-06T01:19:22;1.15;;;0.45;;
14292;SDS011;62290;59.420;17.842;2022-08-06T01:22:25;3.08;;;1.15;;
14292;SDS011;62290;59.420;17.842;2022-08-06T01:25:10;2.78;;;0.80;;
14292;SDS011;62290;59.420;17.842;2022-08-06T01:27:56;1.00;;;0.70;;
14292;SDS011;62290;59.420;17.842;2022-08-06T01:30:27;3.65;;;0.73;;
14292;SDS011;62290;59.420;17.842;2022-08-06T01:33:02;1.55;;;0.95;;
14292;SDS011;62290;59.420;17.842;2022-08-06T01:35:41;4.18;;;0.68;;
14292;SDS011;62290;59.420;17.842;2022-08-06T01:38:22;2.15;;;0.60;;
14292;SDS011;62290;59.420;17.842;2022-08-06T01:40:53;2.35;;;0.75;;
14292;SDS011;62290;59.420;17.842;2022-08-06T01:43:26;1.58;;;0.60;;
14292;SDS011;62290;59.420;17.842;2022-08-06T01:46:18;2.05;;;0.60;;
14292;SDS011;62290;59.420;17.842;2022-08-06T01:48:49;1.05;;;0.63;;
14292;SDS011;62290;59.420;17.842;2022-08-06T01:51:19;2.78;;;0.50;;
14292;SDS011;62290;59.420;17.842;2022-08-06T01:54:10;1.80;;;0.47;;
14292;SDS011;62290;59.420;17.842;2022-08-06T01:56:45;1.90;;;0.93;;
14292;SDS011;62290;59.420;17.842;2022-08-06T01:59:26;5.22;;;1.05;;
14292;SDS011;62290;59.420;17.842;2022-08-06T02:01:59;2.00;;;0.80;;
14292;SDS011;62290;59.420;17.842;2022-08-06T02:04:31;2.40;;;0.50;;
14292;SDS011;62290;59.420;17.842;2022-08-06T02:07:05;2.42;;;0.60;;
14292;SDS011;62290;59.420;17.842;2022-08-06T02:09:40;2.35;;;0.70;;
14292;SDS011;62290;59.420;17.842;2022-08-06T02:12:13;1.70;;;0.70;;
14292;SDS011;62290;59.420;17.842;2022-08-06T02:14:48;2.67;;;0.70;;
14292;SDS011;62290;59.420;17.842;2022-08-06T02:17:20;3.58;;;0.77;;
14292;SDS011;62290;59.420;17.842;2022-08-06T02:20:12;1.77;;;0.63;;
14292;SDS011;62290;59.420;17.842;2022-08-06T02:23:03;1.63;;;0.50;;
14292;SDS011;62290;59.420;17.842;2022-08-06T02:25:35;1.85;;;0.55;;
14292;SDS011;62290;59.420;17.842;2022-08-06T02:28:07;1.88;;;0.63;;
14292;SDS011;62290;59.420;17.842;2022-08-06T02:30:49;1.98;;;0.65;;
14292;SDS011;62290;59.420;17.842;2022-08-06T02:33:19;2.85;;;0.70;;
14292;SDS011;62290;59.420;17.842;2022-08-06T02:36:10;1.50;;;0.75;;
14292;SDS011;62290;59.420;17.842;2022-08-06T02:38:53;4.60;;;0.77;;
14292;SDS011;62290;59.420;17.842;2022-08-06T02:41:30;1.75;;;0.68;;
14292;SDS011;62290;59.420;17.842;2022-08-06T02:44:05;2.63;;;0.60;;
14292;SDS011;62290;59.420;17.842;2022-08-06T02:46:40;3.05;;;0.60;;
14292;SDS011;62290;59.420;17.842;2022-08-06T02:49:15;1.88;;;0.55;;
14292;SDS011;62290;59.420;17.842;2022-08-06T02:51:51;3.20;;;0.80;;
14292;SDS011;62290;59.420;17.842;2022-08-06T02:54:45;0.93;;;0.50;;
14292;SDS011;62290;59.420;17.842;2022-08-06T02:57:24;3.70;;;0.47;;
14292;SDS011;62290;59.420;17.842;2022-08-06T03:00:16;2.17;;;0.70;;
14292;SDS011;62290;59.420;17.842;2022-08-06T03:02:57;1.55;;;0.57;;
14292;SDS011;62290;59.420;17.842;2022-08-06T03:05:27;1.35;;;0.60;;
14292;SDS011;62290;59.420;17.842;2022-08-06T03:08:17;2.13;;;0.60;;
14292;SDS011;62290;59.420;17.842;2022-08-06T03:10:52;2.38;;;0.75;;
14292;SDS011;62290;59.420;17.842;2022-08-06T03:13:21;2.63;;;1.10;;
14292;SDS011;62290;59.420;17.842;2022-08-06T03:16:01;1.15;;;0.65;;
14292;SDS011;62290;59.420;17.842;2022-08-06T03:18:51;3.15;;;0.70;;
14292;SDS011;62290;59.420;17.842;2022-08-06T03:21:41;1.65;;;0.55;;
14292;SDS011;62290;59.420;17.842;2022-08-06T03:24:21;3.28;;;0.50;;
14292;SDS011;62290;59.420;17.842;2022-08-06T03:26:52;3.58;;;0.73;;
14292;SDS011;62290;59.420;17.842;2022-08-06T03:29:23;3.05;;;0.73;;
14292;SDS011;62290;59.420;17.842;2022-08-06T03:31:53;1.63;;;0.60;;
14292;SDS011;62290;59.420;17.842;2022-08-06T03:34:40;2.60;;;0.80;;
14292;SDS011;62290;59.420;17.842;2022-08-06T03:37:10;10.68;;;1.25;;
14292;SDS011;62290;59.420;17.842;2022-08-06T03:39:42;1.55;;;0.55;;
14292;SDS011;62290;59.420;17.842;2022-08-06T03:42:19;2.35;;;0.70;;
14292;SDS011;62290;59.420;17.842;2022-08-06T03:45:02;6.10;;;0.85;;
14292;SDS011;62290;59.420;17.842;2022-08-06T03:47:32;5.57;;;0.77;;
14292;SDS011;62290;59.420;17.842;2022-08-06T03:50:27;2.05;;;0.68;;
14292;SDS011;62290;59.420;17.842;2022-08-06T03:52:59;3.97;;;1.05;;
14292;SDS011;62290;59.420;17.842;2022-08-06T03:55:31;2.25;;;0.90;;
14292;SDS011;62290;59.420;17.842;2022-08-06T03:58:03;2.85;;;0.85;;
14292;SDS011;62290;59.420;17.842;2022-08-06T04:00:36;3.58;;;1.00;;
14292;SDS011;62290;59.420;17.842;2022-08-06T04:03:10;1.83;;;0.80;;
14292;SDS011;62290;59.420;17.842;2022-08-06T04:05:42;3.28;;;1.00;;
14292;SDS011;62290;59.420;17.842;2022-08-06T04:08:13;1.85;;;0.80;;
14292;SDS011;62290;59.420;17.842;2022-08-06T04:10:43;4.18;;;0.88;;
14292;SDS011;62290;59.420;17.842;2022-08-06T04:13:24;2.33;;;0.85;;
14292;SDS011;62290;59.420;17.842;2022-08-06T04:16:13;2.47;;;0.70;;
14292;SDS011;62290;59.420;17.842;2022-08-06T04:19:01;3.75;;;1.08;;
14292;SDS011;62290;59.420;17.842;2022-08-06T04:21:35;2.40;;;0.80;;
14292;SDS011;62290;59.420;17.842;2022-08-06T04:24:24;1.85;;;0.65;;
14292;SDS011;62290;59.420;17.842;2022-08-06T04:26:58;3.88;;;1.00;;
14292;SDS011;62290;59.420;17.842;2022-08-06T04:29:35;5.43;;;0.90;;
14292;SDS011;62290;59.420;17.842;2022-08-06T04:32:24;2.28;;;0.80;;
14292;SDS011;62290;59.420;17.842;2022-08-06T04:34:57;3.28;;;0.80;;
14292;SDS011;62290;59.420;17.842;2022-08-06T04:37:48;5.10;;;0.90;;
14292;SDS011;62290;59.420;17.842;2022-08-06T04:40:20;2.83;;;0.90;;
14292;SDS011;62290;59.420;17.842;2022-08-06T04:43:00;3.53;;;0.90;;
14292;SDS011;62290;59.420;17.842;2022-08-06T04:45:29;4.22;;;0.95;;
14292;SDS011;62290;59.420;17.842;2022-08-06T04:48:19;4.13;;;0.80;;
14292;SDS011;62290;59.420;17.842;2022-08-06T04:50:50;2.20;;;0.80;;
14292;SDS011;62290;59.420;17.842;2022-08-06T04:53:21;4.80;;;1.30;;
14292;SDS011;62290;59.420;17.842;2022-08-06T04:56:09;2.90;;;0.80;;
14292;SDS011;62290;59.420;17.842;2022-08-06T04:58:41;4.20;;;0.90;;
14292;SDS011;62290;59.420;17.842;2022-08-06T05:01:09;3.47;;;0.90;;
14292;SDS011;62290;59.420;17.842;2022-08-06T05:03:37;4.53;;;1.20;;
14292;SDS011;62290;59.420;17.842;2022-08-06T05:06:29;3.15;;;0.95;;
14292;SDS011;62290;59.420;17.842;2022-08-06T05:09:15;2.17;;;0.73;;
14292;SDS011;62290;59.420;17.842;2022-08-06T05:11:56;6.35;;;1.00;;
14292;SDS011;62290;59.420;17.842;2022-08-06T05:14:35;2.85;;;1.15;;
14292;SDS011;62290;59.420;17.842;2022-08-06T05:17:06;4.80;;;0.93;;
14292;SDS011;62290;59.420;17.842;2022-08-06T05:19:41;4.70;;;1.17;;
14292;SDS011;62290;59.420;17.842;2022-08-06T05:22:12;3.15;;;1.08;;
14292;SDS011;62290;59.420;17.842;2022-08-06T05:25:05;4.00;;;1.00;;
14292;SDS011;62290;59.420;17.842;2022-08-06T05:27:41;4.80;;;1.10;;
14292;SDS011;62290;59.420;17.842;2022-08-06T05:30:30;2.78;;;0.90;;
14292;SDS011;62290;59.420;17.842;2022-08-06T05:32:58;4.47;;;1.02;;
14292;SDS011;62290;59.420;17.842;2022-08-06T05:35:27;7.05;;;1.40;;
14292;SDS011;62290;59.420;17.842;2022-08-06T05:38:11;2.55;;;0.98;;
14292;SDS011;62290;59.420;17.842;2022-08-06T05:40:48;3.67;;;0.90;;
14292;SDS011;62290;59.420;17.842;2022-08-06T05:43:23;4.55;;;1.10;;
14292;SDS011;62290;59.420;17.842;2022-08-06T05:46:11;1.88;;;0.70;;
14292;SDS011;62290;59.420;17.842;2022-08-06T05:48:43;4.88;;;1.05;;
14292;SDS011;62290;59.420;17.842;2022-08-06T05:51:20;3.78;;;1.00;;
14292;SDS011;62290;59.420;17.842;2022-08-06T05:54:17;3.65;;;1.00;;
14292;SDS011;62290;59.420;17.842;2022-08-06T05:56:51;3.10;;;1.25;;
14292;SDS011;62290;59.420;17.842;2022-08-06T05:59:30;2.00;;;0.80;;
14292;SDS011;62290;59.420;17.842;2022-08-06T06:02:22;6.18;;;1.23;;
14292;SDS011;62290;59.420;17.842;2022-08-06T06:04:53;4.82;;;1.30;;
14292;SDS011;62290;59.420;17.842;2022-08-06T06:07:41;3.00;;;1.08;;
14292;SDS011;62290;59.420;17.842;2022-08-06T06:10:30;4.95;;;1.15;;
14292;SDS011;62290;59.420;17.842;2022-08-06T06:13:02;3.45;;;0.88;;
14292;SDS011;62290;59.420;17.842;2022-08-06T06:15:53;3.95;;;1.10;;
14292;SDS011;62290;59.420;17.842;2022-08-06T06:18:32;5.00;;;1.10;;
14292;SDS011;62290;59.420;17.842;2022-08-06T06:21:25;3.90;;;1.02;;
14292;SDS011;62290;59.420;17.842;2022-08-06T06:24:08;4.72;;;1.33;;
14292;SDS011;62290;59.420;17.842;2022-08-06T06:26:45;6.88;;;1.27;;
14292;SDS011;62290;59.420;17.842;2022-08-06T06:29:25;7.78;;;1.52;;
14292;SDS011;62290;59.420;17.842;2022-08-06T06:32:23;7.05;;;1.60;;
14292;SDS011;62290;59.420;17.842;2022-08-06T06:35:09;3.60;;;1.00;;
14292;SDS011;62290;59.420;17.842;2022-08-06T06:37:50;5.10;;;1.15;;
14292;SDS011;62290;59.420;17.842;2022-08-06T06:40:34;4.28;;;1.10;;
14292;SDS011;62290;59.420;17.842;2022-08-06T06:43:20;2.15;;;1.05;;
14292;SDS011;62290;59.420;17.842;2022-08-06T06:46:16;3.97;;;1.10;;
14292;SDS011;62290;59.420;17.842;2022-08-06T06:49:07;3.92;;;1.52;;
14292;SDS011;62290;59.420;17.842;2022-08-06T06:52:03;5.78;;;1.20;;
14292;SDS011;62290;59.420;17.842;2022-08-06T06:54:37;3.72;;;1.38;;
14292;SDS011;62290;59.420;17.842;2022-08-06T06:57:25;6.28;;;1.50;;
14292;SDS011;62290;59.420;17.842;2022-08-06T07:00:11;3.55;;;1.02;;
14292;SDS011;62290;59.420;17.842;2022-08-06T07:03:03;4.97;;;1.13;;
14292;SDS011;62290;59.420;17.842;2022-08-06T07:05:35;6.82;;;1.40;;
14292;SDS011;62290;59.420;17.842;2022-08-06T07:08:26;4.28;;;1.20;;
14292;SDS011;62290;59.420;17.842;2022-08-06T07:11:03;6.15;;;1.40;;
14292;SDS011;62290;59.420;17.842;2022-08-06T07:13:34;1.92;;;1.00;;
14292;SDS011;62290;59.420;17.842;2022-08-06T07:16:16;4.40;;;1.10;;
14292;SDS011;62290;59.420;17.842;2022-08-06T07:19:04;4.85;;;1.10;;
14292;SDS011;62290;59.420;17.842;2022-08-06T07:21:36;3.60;;;1.02;;
14292;SDS011;62290;59.420;17.842;2022-08-06T07:24:08;5.53;;;1.17;;
14292;SDS011;62290;59.420;17.842;2022-08-06T07:26:58;5.55;;;1.30;;
14292;SDS011;62290;59.420;17.842;2022-08-06T07:29:28;3.90;;;1.77;;
14292;SDS011;62290;59.420;17.842;2022-08-06T07:32:19;3.50;;;1.10;;
14292;SDS011;62290;59.420;17.842;2022-08-06T07:34:59;5.03;;;1.17;;
14292;SDS011;62290;59.420;17.842;2022-08-06T07:37:40;3.50;;;1.25;;
14292;SDS011;62290;59.420;17.842;2022-08-06T07:40:10;4.88;;;1.30;;
14292;SDS011;62290;59.420;17.842;2022-08-06T07:42:44;3.03;;;1.02;;
14292;SDS011;62290;59.420;17.842;2022-08-06T07:45:16;3.40;;;0.85;;
14292;SDS011;62290;59.420;17.842;2022-08-06T07:47:47;2.13;;;0.82;;
14292;SDS011;62290;59.420;17.842;2022-08-06T07:50:23;3.08;;;0.73;;
14292;SDS011;62290;59.420;17.842;2022-08-06T07:52:54;2.92;;;1.08;;
14292;SDS011;62290;59.420;17.842;2022-08-06T07:55:23;3.10;;;1.13;;
14292;SDS011;62290;59.420;17.842;2022-08-06T07:58:05;3.55;;;1.10;;
14292;SDS011;62290;59.420;17.842;2022-08-06T08:00:35;3.67;;;0.80;;
14292;SDS011;62290;59.420;17.842;2022-08-06T08:03:04;4.07;;;0.82;;
14292;SDS011;62290;59.420;17.842;2022-08-06T08:06:13;10.38;;;1.50;;
14292;SDS011;62290;59.420;17.842;2022-08-06T08:08:52;4.68;;;1.25;;
14292;SDS011;62290;59.420;17.842;2022-08-06T08:11:22;4.38;;;1.13;;
14292;SDS011;62290;59.420;17.842;2022-08-06T08:14:13;3.90;;;1.20;;
14292;SDS011;62290;59.420;17.842;2022-08-06T08:16:45;3.42;;;1.08;;
14292;SDS011;62290;59.420;17.842;2022-08-06T08:19:21;3.65;;;0.90;;
14292;SDS011;62290;59.420;17.842;2022-08-06T08:21:53;4.05;;;1.00;;
14292;SDS011;62290;59.420;17.842;2022-08-06T08:24:23;4.72;;;0.98;;
14292;SDS011;62290;59.420;17.842;2022-08-06T08:26:51;5.30;;;0.82;;
14292;SDS011;62290;59.420;17.842;2022-08-06T08:29:40;2.20;;;0.70;;
14292;SDS011;62290;59.420;17.842;2022-08-06T08:32:20;2.33;;;0.70;;
14292;SDS011;62290;59.420;17.842;2022-08-06T08:34:49;2.47;;;0.75;;
14292;SDS011;62290;59.420;17.842;2022-08-06T08:37:20;1.17;;;0.60;;
14292;SDS011;62290;59.420;17.842;2022-08-06T08:39:49;2.15;;;0.70;;
14292;SDS011;62290;59.420;17.842;2022-08-06T08:42:23;3.25;;;0.93;;
14292;SDS011;62290;59.420;17.842;2022-08-06T08:45:02;0.82;;;0.50;;
14292;SDS011;62290;59.420;17.842;2022-08-06T08:47:34;4.93;;;0.85;;
14292;SDS011;62290;59.420;17.842;2022-08-06T08:50:19;2.55;;;0.90;;
14292;SDS011;62290;59.420;17.842;2022-08-06T08:52:54;2.17;;;0.80;;
14292;SDS011;62290;59.420;17.842;2022-08-06T08:55:30;1.05;;;0.52;;
14292;SDS011;62290;59.420;17.842;2022-08-06T08:58:19;1.70;;;0.70;;
14292;SDS011;62290;59.420;17.842;2022-08-06T09:01:08;2.25;;;0.68;;
14292;SDS011;62290;59.420;17.842;2022-08-06T09:03:57;2.35;;;0.60;;
14292;SDS011;62290;59.420;17.842;2022-08-06T09:06:30;4.63;;;0.80;;
14292;SDS011;62290;59.420;17.842;2022-08-06T09:09:06;4.93;;;0.60;;
14292;SDS011;62290;59.420;17.842;2022-08-06T09:11:41;1.17;;;0.30;;
14292;SDS011;62290;59.420;17.842;2022-08-06T09:14:30;1.70;;;0.50;;
14292;SDS011;62290;59.420;17.842;2022-08-06T09:16:59;2.92;;;0.55;;
14292;SDS011;62290;59.420;17.842;2022-08-06T09:19:28;1.63;;;0.57;;
14292;SDS011;62290;59.420;17.842;2022-08-06T09:22:06;0.40;;;0.32;;
14292;SDS011;62290;59.420;17.842;2022-08-06T09:24:36;4.50;;;0.68;;
14292;SDS011;62290;59.420;17.842;2022-08-06T09:27:06;3.90;;;0.57;;
14292;SDS011;62290;59.420;17.842;2022-08-06T09:29:56;1.10;;;0.50;;
14292;SDS011;62290;59.420;17.842;2022-08-06T09:32:36;1.10;;;0.40;;
14292;SDS011;62290;59.420;17.842;2022-08-06T09:35:22;1.67;;;0.28;;
14292;SDS011;62290;59.420;17.842;2022-08-06T09:38:11;2.30;;;0.52;;
14292;SDS011;62290;59.420;17.842;2022-08-06T09:43:41;0.38;;;0.30;;
14292;SDS011;62290;59.420;17.842;2022-08-06T09:46:36;0.95;;;0.30;;
14292;SDS011;62290;59.420;17.842;2022-08-06T09:49:07;3.65;;;0.50;;
14292;SDS011;62290;59.420;17.842;2022-08-06T09:54:43;0.93;;;0.40;;
14292;SDS011;62290;59.420;17.842;2022-08-06T09:57:21;1.65;;;0.40;;
14292;SDS011;62290;59.420;17.842;2022-08-06T10:00:03;2.60;;;0.40;;
14292;SDS011;62290;59.420;17.842;2022-08-06T10:02:40;0.57;;;0.50;;
14292;SDS011;62290;59.420;17.842;2022-08-06T10:05:16;3.08;;;0.30;;
14292;SDS011;62290;59.420;17.842;2022-08-06T10:07:46;2.80;;;0.40;;
14292;SDS011;62290;59.420;17.842;2022-08-06T10:10:19;0.28;;;0.28;;
14292;SDS011;62290;59.420;17.842;2022-08-06T10:13:16;0.75;;;0.38;;
14292;SDS011;62290;59.420;17.842;2022-08-06T10:15:48;1.00;;;0.40;;
14292;SDS011;62290;59.420;17.842;2022-08-06T10:18:32;0.73;;;0.17;;
14292;SDS011;62290;59.420;17.842;2022-08-06T10:21:25;3.40;;;0.50;;
14292;SDS011;62290;59.420;17.842;2022-08-06T10:24:07;0.30;;;0.30;;
14292;SDS011;62290;59.420;17.842;2022-08-06T10:26:37;1.15;;;0.32;;
14292;SDS011;62290;59.420;17.842;2022-08-06T10:29:11;2.25;;;0.47;;
14292;SDS011;62290;59.420;17.842;2022-08-06T10:31:42;0.57;;;0.50;;
14292;SDS011;62290;59.420;17.842;2022-08-06T10:34:20;3.58;;;0.60;;
14292;SDS011;62290;59.420;17.842;2022-08-06T10:36:59;2.45;;;0.70;;
14292;SDS011;62290;59.420;17.842;2022-08-06T10:39:51;1.23;;;0.80;;
14292;SDS011;62290;59.420;17.842;2022-08-06T10:42:35;0.90;;;0.55;;
14292;SDS011;62290;59.420;17.842;2022-08-06T10:45:09;1.83;;;0.60;;
14292;SDS011;62290;59.420;17.842;2022-08-06T10:47:43;0.80;;;0.50;;
14292;SDS011;62290;59.420;17.842;2022-08-06T10:50:32;0.50;;;0.50;;
14292;SDS011;62290;59.420;17.842;2022-08-06T10:53:04;1.60;;;1.05;;
14292;SDS011;62290;59.420;17.842;2022-08-06T10:55:36;0.98;;;0.43;;
14292;SDS011;62290;59.420;17.842;2022-08-06T10:58:10;1.13;;;0.32;;
14292;SDS011;62290;59.420;17.842;2022-08-06T11:00:40;0.40;;;0.40;;
14292;SDS011;62290;59.420;17.842;2022-08-06T11:03:18;6.85;;;0.65;;
14292;SDS011;62290;59.420;17.842;2022-08-06T11:05:54;0.50;;;0.40;;
14292;SDS011;62290;59.420;17.842;2022-08-06T11:08:42;0.60;;;0.40;;
14292;SDS011;62290;59.420;17.842;2022-08-06T11:11:37;0.30;;;0.30;;
14292;SDS011;62290;59.420;17.842;2022-08-06T11:14:33;0.70;;;0.40;;
14292;SDS011;62290;59.420;17.842;2022-08-06T11:17:05;0.65;;;0.50;;
14292;SDS011;62290;59.420;17.842;2022-08-06T11:19:41;0.82;;;0.43;;
14292;SDS011;62290;59.420;17.842;2022-08-06T11:22:35;0.85;;;0.50;;
14292;SDS011;62290;59.420;17.842;2022-08-06T11:25:20;0.75;;;0.40;;
14292;SDS011;62290;59.420;17.842;2022-08-06T11:28:05;0.75;;;0.30;;
14292;SDS011;62290;59.420;17.842;2022-08-06T11:30:38;1.45;;;0.50;;
14292;SDS011;62290;59.420;17.842;2022-08-06T11:33:13;1.08;;;0.60;;
14292;SDS011;62290;59.420;17.842;2022-08-06T11:35:43;4.78;;;0.57;;
14292;SDS011;62290;59.420;17.842;2022-08-06T11:41:46;7.10;;;1.17;;
14292;SDS011;62290;59.420;17.842;2022-08-06T11:44:28;7.22;;;1.27;;
14292;SDS011;62290;59.420;17.842;2022-08-06T11:47:06;3.40;;;0.60;;
14292;SDS011;62290;59.420;17.842;2022-08-06T11:49:38;1.52;;;0.65;;
14292;SDS011;62290;59.420;17.842;2022-08-06T11:55:10;1.42;;;0.55;;
14292;SDS011;62290;59.420;17.842;2022-08-06T11:57:49;1.38;;;0.85;;
14292;SDS011;62290;59.420;17.842;2022-08-06T12:00:54;2.22;;;0.43;;
14292;SDS011;62290;59.420;17.842;2022-08-06T12:03:35;2.50;;;0.45;;
14292;SDS011;62290;59.420;17.842;2022-08-06T12:06:22;2.15;;;0.77;;
14292;SDS011;62290;59.420;17.842;2022-08-06T12:09:07;0.70;;;0.70;;
14292;SDS011;62290;59.420;17.842;2022-08-06T12:11:49;1.70;;;0.50;;
14292;SDS011;62290;59.420;17.842;2022-08-06T12:14:37;1.73;;;0.75;;
14292;SDS011;62290;59.420;17.842;2022-08-06T12:17:15;10.38;;;1.10;;
14292;SDS011;62290;59.420;17.842;2022-08-06T12:19:44;1.63;;;0.60;;
14292;SDS011;62290;59.420;17.842;2022-08-06T12:22:30;2.60;;;0.60;;
14292;SDS011;62290;59.420;17.842;2022-08-06T12:25:02;3.28;;;1.02;;
14292;SDS011;62290;59.420;17.842;2022-08-06T12:27:37;1.23;;;0.60;;
14292;SDS011;62290;59.420;17.842;2022-08-06T12:30:16;6.65;;;0.80;;
14292;SDS011;62290;59.420;17.842;2022-08-06T12:33:03;3.47;;;0.73;;
14292;SDS011;62290;59.420;17.842;2022-08-06T12:35:47;1.13;;;0.70;;
14292;SDS011;62290;59.420;17.842;2022-08-06T12:38:18;3.17;;;0.80;;
14292;SDS011;62290;59.420;17.842;2022-08-06T12:40:53;4.63;;;0.60;;
14292;SDS011;62290;59.420;17.842;2022-08-06T12:43:24;9.63;;;0.65;;
14292;SDS011;62290;59.420;17.842;2022-08-06T12:46:12;4.13;;;0.57;;
14292;SDS011;62290;59.420;17.842;2022-08-06T12:48:46;3.03;;;0.50;;
14292;SDS011;62290;59.420;17.842;2022-08-06T12:51:16;1.60;;;0.60;;
14292;SDS011;62290;59.420;17.842;2022-08-06T12:53:54;3.75;;;0.80;;
14292;SDS011;62290;59.420;17.842;2022-08-06T12:56:25;0.60;;;0.50;;
14292;SDS011;62290;59.420;17.842;2022-08-06T12:58:58;1.98;;;0.60;;
14292;SDS011;62290;59.420;17.842;2022-08-06T13:01:29;1.95;;;0.50;;
14292;SDS011;62290;59.420;17.842;2022-08-06T13:04:20;0.95;;;0.73;;
14292;SDS011;62290;59.420;17.842;2022-08-06T13:06:57;6.60;;;0.77;;
14292;SDS011;62290;59.420;17.842;2022-08-06T13:09:29;2.53;;;0.70;;
14292;SDS011;62290;59.420;17.842;2022-08-06T13:12:12;2.90;;;0.85;;
14292;SDS011;62290;59.420;17.842;2022-08-06T13:15:09;4.85;;;0.50;;
14292;SDS011;62290;59.420;17.842;2022-08-06T13:18:01;2.00;;;0.60;;
14292;SDS011;62290;59.420;17.842;2022-08-06T13:20:53;0.93;;;0.40;;
14292;SDS011;62290;59.420;17.842;2022-08-06T13:23:28;7.22;;;0.80;;
14292;SDS011;62290;59.420;17.842;2022-08-06T13:26:11;1.67;;;0.77;;
14292;SDS011;62290;59.420;17.842;2022-08-06T13:29:09;0.57;;;0.40;;
14292;SDS011;62290;59.420;17.842;2022-08-06T13:32:00;0.82;;;0.35;;
14292;SDS011;62290;59.420;17.842;2022-08-06T13:34:52;0.82;;;0.40;;
14292;SDS011;62290;59.420;17.842;2022-08-06T13:37:42;11.57;;;2.80;;
14292;SDS011;62290;59.420;17.842;2022-08-06T13:40:35;8.82;;;2.47;;
14292;SDS011;62290;59.420;17.842;2022-08-06T13:43:13;8.43;;;2.13;;
14292;SDS011;62290;59.420;17.842;2022-08-06T13:46:05;5.18;;;1.50;;
14292;SDS011;62290;59.420;17.842;2022-08-06T13:48:42;3.38;;;1.02;;
14292;SDS011;62290;59.420;17.842;2022-08-06T13:51:12;3.75;;;1.35;;
14292;SDS011;62290;59.420;17.842;2022-08-06T13:53:53;2.00;;;1.00;;
14292;SDS011;62290;59.420;17.842;2022-08-06T13:56:25;3.80;;;1.10;;
14292;SDS011;62290;59.420;17.842;2022-08-06T13:58:58;5.60;;;1.35;;
14292;SDS011;62290;59.420;17.842;2022-08-06T14:01:27;2.25;;;1.10;;
14292;SDS011;62290;59.420;17.842;2022-08-06T14:04:14;3.65;;;0.90;;
14292;SDS011;62290;59.420;17.842;2022-08-06T14:06:46;1.40;;;0.60;;
14292;SDS011;62290;59.420;17.842;2022-08-06T14:09:17;1.10;;;0.80;;
14292;SDS011;62290;59.420;17.842;2022-08-06T14:11:48;2.00;;;0.77;;
14292;SDS011;62290;59.420;17.842;2022-08-06T14:14:21;1.98;;;0.63;;
14292;SDS011;62290;59.420;17.842;2022-08-06T14:16:53;0.68;;;0.50;;
14292;SDS011;62290;59.420;17.842;2022-08-06T14:19:22;1.73;;;0.40;;
14292;SDS011;62290;59.420;17.842;2022-08-06T14:22:10;1.95;;;0.70;;
14292;SDS011;62290;59.420;17.842;2022-08-06T14:24:39;2.35;;;0.70;;
14292;SDS011;62290;59.420;17.842;2022-08-06T14:27:19;1.00;;;0.70;;
14292;SDS011;62290;59.420;17.842;2022-08-06T14:29:53;2.40;;;0.60;;
14292;SDS011;62290;59.420;17.842;2022-08-06T14:32:41;0.93;;;0.80;;
14292;SDS011;62290;59.420;17.842;2022-08-06T14:35:13;4.03;;;0.90;;
14292;SDS011;62290;59.420;17.842;2022-08-06T14:37:42;2.33;;;0.68;;
14292;SDS011;62290;59.420;17.842;2022-08-06T14:40:21;0.88;;;0.45;;
14292;SDS011;62290;59.420;17.842;2022-08-06T14:43:24;1.55;;;0.57;;
14292;SDS011;62290;59.420;17.842;2022-08-06T14:46:25;0.35;;;0.35;;
14292;SDS011;62290;59.420;17.842;2022-08-06T14:48:56;0.98;;;0.52;;
14292;SDS011;62290;59.420;17.842;2022-08-06T14:51:37;0.40;;;0.40;;
14292;SDS011;62290;59.420;17.842;2022-08-06T14:54:26;0.73;;;0.40;;
14292;SDS011;62290;59.420;17.842;2022-08-06T14:56:57;1.65;;;0.63;;
14292;SDS011;62290;59.420;17.842;2022-08-06T14:59:27;0.90;;;0.73;;
14292;SDS011;62290;59.420;17.842;2022-08-06T15:02:14;1.75;;;0.40;;
14292;SDS011;62290;59.420;17.842;2022-08-06T15:04:42;0.80;;;0.70;;
14292;SDS011;62290;59.420;17.842;2022-08-06T15:07:18;1.80;;;0.60;;
14292;SDS011;62290;59.420;17.842;2022-08-06T15:10:07;1.73;;;0.60;;
14292;SDS011;62290;59.420;17.842;2022-08-06T15:12:53;1.63;;;0.52;;
14292;SDS011;62290;59.420;17.842;2022-08-06T15:15:28;0.77;;;0.60;;
14292;SDS011;62290;59.420;17.842;2022-08-06T15:18:13;0.57;;;0.52;;
14292;SDS011;62290;59.420;17.842;2022-08-06T15:21:02;1.02;;;0.55;;
14292;SDS011;62290;59.420;17.842;2022-08-06T15:23:36;0.50;;;0.50;;
14292;SDS011;62290;59.420;17.842;2022-08-06T15:26:20;0.43;;;0.30;;
14292;SDS011;62290;59.420;17.842;2022-08-06T15:29:08;0.35;;;0.30;;
14292;SDS011;62290;59.420;17.842;2022-08-06T15:31:42;0.28;;;0.28;;
14292;SDS011;62290;59.420;17.842;2022-08-06T15:34:12;0.98;;;0.40;;
14292;SDS011;62290;59.420;17.842;2022-08-06T15:36:52;0.30;;;0.30;;
14292;SDS011;62290;59.420;17.842;2022-08-06T15:39:29;0.85;;;0.32;;
14292;SDS011;62290;59.420;17.842;2022-08-06T15:42:18;2.60;;;0.65;;
14292;SDS011;62290;59.420;17.842;2022-08-06T15:44:49;0.20;;;0.20;;
14292;SDS011;62290;59.420;17.842;2022-08-06T15:47:18;0.20;;;0.20;;
14292;SDS011;62290;59.420;17.842;2022-08-06T15:49:59;0.35;;;0.32;;
14292;SDS011;62290;59.420;17.842;2022-08-06T15:52:31;0.25;;;0.20;;
14292;SDS011;62290;59.420;17.842;2022-08-06T15:55:03;1.52;;;0.22;;